Time;durP1;ratioP1;P1;durP2;ratioP2;P2;SDS_P1;SDS_P2;PMS_P1;PMS_P2;Temp;Humidity;BMP_temperature;BMP_pressure;BME280_temperature;BME280_humidity;BME280_pressure;Samples;Min_cycle;Max_cycle;Signal;HPM_P1;HPM_P2
2021/04/26 00:00:56;;;;;;;;;;;4.40;75.40;;;;;;5029723;28;20278;-73
2021/04/26 00:03:21;;;;;;;;;;;4.40;75.80;;;;;;5032930;28;20333;-72
2021/04/26 00:05:47;;;;;;;;;;;4.70;74.30;;;;;;5031866;28;19921;-73
2021/04/26 00:08:12;;;;;;;;;;;4.90;73.80;;;;;;5030936;28;20021;-72
2021/04/26 00:10:38;;;;;;;;;;;4.90;74.40;;;;;;5031814;28;19921;-73
2021/04/26 00:13:03;;;;;;;;;;;4.80;74.90;;;;;;5031375;28;19913;-73
2021/04/26 00:15:29;;;;;;;;;;;4.60;75.40;;;;;;5031321;28;19921;-73
2021/04/26 00:17:55;;;;;;;;;;;4.40;75.80;;;;;;5031079;28;19921;-73
2021/04/26 00:20:22;;;;;;;;;;;4.30;76.10;;;;;;5029457;28;20314;-73
2021/04/26 00:22:48;;;;;;;;;;;4.30;76.40;;;;;;5011608;28;20026;-73
2021/04/26 00:25:14;;;;;;;;;;;4.30;75.90;;;;;;5034578;28;19917;-73
2021/04/26 00:27:39;;;;;;;;;;;4.30;76.40;;;;;;5035641;28;19917;-73
2021/04/26 00:30:08;;;;;;;;;;;4.20;77.10;;;;;;5036146;28;19913;-72
2021/04/26 00:32:34;;;;;;;;;;;4.10;77.60;;;;;;5036430;28;20043;-73
2021/04/26 00:34:59;;;;;;;;;;;3.90;78.10;;;;;;5030731;28;20385;-73
2021/04/26 00:37:25;;;;;;;;;;;3.80;78.50;;;;;;5029489;28;20336;-73
2021/04/26 00:39:50;;;;;;;;;;;3.70;79.60;;;;;;5030626;28;20437;-72
2021/04/26 00:42:16;;;;;;;;;;;3.50;80.60;;;;;;5026886;28;19936;-72
2021/04/26 00:44:42;;;;;;;;;;;3.40;81.20;;;;;;5030776;28;19921;-71
2021/04/26 00:47:07;;;;;;;;;;;3.40;82.30;;;;;;5031138;28;19979;-73
2021/04/26 00:49:33;;;;;;;;;;;3.20;82.40;;;;;;5031224;28;20256;-73
2021/04/26 00:51:59;;;;;;;;;;;3.10;83.70;;;;;;5029884;28;20317;-73
2021/04/26 00:54:24;;;;;;;;;;;2.80;84.70;;;;;;5028786;28;19951;-73
2021/04/26 00:56:50;;;;;;;;;;;2.60;85.30;;;;;;5028130;28;19928;-73
2021/04/26 00:59:16;;;;;;;;;;;2.50;85.80;;;;;;5027921;28;19913;-73
2021/04/26 01:01:41;;;;;;;;;;;2.40;85.80;;;;;;5029117;28;19921;-73
2021/04/26 01:04:07;;;;;;;;;;;2.30;86.10;;;;;;5027320;28;19929;-73
2021/04/26 01:06:32;;;;;;;;;;;2.30;85.10;;;;;;5026302;28;19932;-73
2021/04/26 01:08:58;;;;;;;;;;;2.40;85.70;;;;;;5027825;28;19920;-73
2021/04/26 01:11:28;;;;;;;;;;;2.50;85.00;;;;;;5026782;28;19924;-72
2021/04/26 01:14:04;;;;;;;;;;;2.50;84.90;;;;;;5026840;28;19922;-73
2021/04/26 01:16:33;;;;;;;;;;;2.50;84.80;;;;;;5024933;28;19917;-72
2021/04/26 01:19:24;;;;;;;;;;;2.40;85.30;;;;;;5025434;28;19917;-73
2021/04/26 01:22:05;;;;;;;;;;;2.30;86.90;;;;;;5021009;28;19979;-72
2021/04/26 01:24:49;;;;;;;;;;;2.20;87.80;;;;;;5027387;28;19913;-73
2021/04/26 01:27:30;;;;;;;;;;;2.10;88.20;;;;;;5018347;28;19928;-73
2021/04/26 01:29:59;;;;;;;;;;;2.10;88.10;;;;;;5015985;28;19952;-74
2021/04/26 01:32:43;;;;;;;;;;;2.00;88.20;;;;;;5026541;28;19917;-73
2021/04/26 01:35:13;;;;;;;;;;;2.00;88.50;;;;;;5008154;28;20356;-73
2021/04/26 01:37:39;;;;;;;;;;;2.30;87.90;;;;;;5024716;28;19913;-73
2021/04/26 01:40:06;;;;;;;;;;;2.60;86.30;;;;;;5028029;28;19921;-74
2021/04/26 01:42:34;;;;;;;;;;;3.00;85.00;;;;;;5028421;28;19919;-73
2021/04/26 01:45:04;;;;;;;;;;;3.10;84.30;;;;;;5029087;28;19921;-73
2021/04/26 01:47:29;;;;;;;;;;;2.90;84.70;;;;;;5025876;28;19921;-74
2021/04/26 01:49:56;;;;;;;;;;;2.70;85.40;;;;;;5023214;28;19972;-73
2021/04/26 01:52:21;;;;;;;;;;;2.60;85.70;;;;;;5029690;28;19995;-73
2021/04/26 01:54:48;;;;;;;;;;;2.50;85.80;;;;;;5027565;28;20733;-73
2021/04/26 01:57:16;;;;;;;;;;;2.50;86.80;;;;;;5025285;28;19916;-73
2021/04/26 01:59:42;;;;;;;;;;;2.50;87.00;;;;;;5015102;28;19928;-74
2021/04/26 02:02:08;;;;;;;;;;;2.50;86.60;;;;;;5023907;28;20465;-74
2021/04/26 02:04:35;;;;;;;;;;;2.50;86.00;;;;;;5010448;28;19921;-74
2021/04/26 02:07:01;;;;;;;;;;;2.50;85.90;;;;;;5012713;28;19917;-73
2021/04/26 02:09:28;;;;;;;;;;;2.40;86.40;;;;;;5010439;28;19920;-74
2021/04/26 02:11:55;;;;;;;;;;;2.40;86.40;;;;;;5013677;28;19975;-74
2021/04/26 02:14:21;;;;;;;;;;;2.30;86.80;;;;;;5014593;28;19918;-73
2021/04/26 02:16:47;;;;;;;;;;;2.20;87.20;;;;;;5001902;28;19928;-73
2021/04/26 02:19:12;;;;;;;;;;;2.10;87.50;;;;;;5013222;28;19921;-74
2021/04/26 02:21:41;;;;;;;;;;;2.00;87.80;;;;;;5016010;28;19922;-73
2021/04/26 02:24:07;;;;;;;;;;;2.10;88.10;;;;;;5015332;28;19920;-73
2021/04/26 02:26:33;;;;;;;;;;;2.10;88.10;;;;;;5017201;28;20186;-74
2021/04/26 02:28:59;;;;;;;;;;;2.10;87.80;;;;;;5016904;28;19925;-73
2021/04/26 02:31:25;;;;;;;;;;;2.00;87.70;;;;;;5021711;28;19917;-73
2021/04/26 02:33:54;;;;;;;;;;;1.90;88.40;;;;;;4989354;28;20317;-73
2021/04/26 02:36:31;;;;;;;;;;;1.90;89.20;;;;;;5002652;28;20242;-73
2021/04/26 02:38:59;;;;;;;;;;;2.20;88.70;;;;;;5017838;28;19917;-73
2021/04/26 02:41:29;;;;;;;;;;;2.60;87.50;;;;;;5017324;28;20259;-74
2021/04/26 02:44:01;;;;;;;;;;;2.70;86.70;;;;;;5003748;28;19913;-74
2021/04/26 02:46:27;;;;;;;;;;;2.70;86.40;;;;;;5015196;28;19925;-73
2021/04/26 02:48:53;;;;;;;;;;;2.80;86.10;;;;;;5008756;28;19917;-72
2021/04/26 02:51:20;;;;;;;;;;;2.80;85.90;;;;;;5007926;28;19963;-73
2021/04/26 02:53:45;;;;;;;;;;;2.70;85.30;;;;;;5018636;28;19929;-74
2021/04/26 02:56:14;;;;;;;;;;;2.60;85.80;;;;;;5010274;28;19933;-74
2021/04/26 02:58:40;;;;;;;;;;;2.50;86.00;;;;;;5012059;28;20007;-73
2021/04/26 03:01:07;;;;;;;;;;;2.30;86.70;;;;;;5010036;28;20447;-73
2021/04/26 03:03:34;;;;;;;;;;;2.20;87.50;;;;;;5011764;28;19940;-74
2021/04/26 03:06:00;;;;;;;;;;;2.30;87.70;;;;;;5010573;28;19936;-73
2021/04/26 03:08:26;;;;;;;;;;;2.30;87.90;;;;;;4987636;28;19922;-73
2021/04/26 03:10:52;;;;;;;;;;;2.30;87.60;;;;;;5013206;28;20219;-73
2021/04/26 03:13:18;;;;;;;;;;;2.20;87.50;;;;;;4987612;28;19919;-73
2021/04/26 03:15:43;;;;;;;;;;;2.10;87.60;;;;;;5011623;28;19922;-73
2021/04/26 03:18:12;;;;;;;;;;;2.00;88.00;;;;;;5010740;28;19945;-74
2021/04/26 03:20:37;;;;;;;;;;;1.90;88.80;;;;;;5009829;28;20224;-73
2021/04/26 03:23:03;;;;;;;;;;;1.90;89.10;;;;;;4989182;28;19922;-74
2021/04/26 03:25:29;;;;;;;;;;;2.00;89.20;;;;;;4987721;28;19917;-74
2021/04/26 03:27:57;;;;;;;;;;;2.10;88.70;;;;;;5010285;28;19921;-74
2021/04/26 03:30:24;;;;;;;;;;;2.20;88.30;;;;;;5004920;28;19917;-73
2021/04/26 03:32:50;;;;;;;;;;;2.30;87.60;;;;;;5008578;28;19914;-73
2021/04/26 03:35:17;;;;;;;;;;;2.40;87.20;;;;;;5010027;28;19975;-73
2021/04/26 03:37:47;;;;;;;;;;;2.20;87.70;;;;;;5007348;28;19929;-73
2021/04/26 03:40:15;;;;;;;;;;;2.00;88.40;;;;;;5007678;28;20047;-72
2021/04/26 03:42:44;;;;;;;;;;;1.80;89.40;;;;;;5009332;28;19913;-73
2021/04/26 03:45:12;;;;;;;;;;;1.70;89.70;;;;;;5010431;28;19917;-73
2021/04/26 03:47:38;;;;;;;;;;;1.60;90.00;;;;;;4993466;28;20217;-73
2021/04/26 03:50:04;;;;;;;;;;;1.40;90.40;;;;;;5011989;28;19921;-73
2021/04/26 03:52:29;;;;;;;;;;;1.30;90.90;;;;;;4990824;28;20376;-73
2021/04/26 03:54:55;;;;;;;;;;;1.20;91.20;;;;;;5021188;28;19927;-73
2021/04/26 03:57:20;;;;;;;;;;;1.10;91.80;;;;;;5020660;28;19921;-74
2021/04/26 03:59:46;;;;;;;;;;;1.10;92.30;;;;;;5025178;28;19967;-73
2021/04/26 04:02:14;;;;;;;;;;;1.10;92.30;;;;;;5023230;28;19917;-74
2021/04/26 04:04:40;;;;;;;;;;;1.10;92.40;;;;;;5020381;28;19956;-74
2021/04/26 04:07:06;;;;;;;;;;;1.10;92.50;;;;;;5019235;28;20325;-74
2021/04/26 04:09:31;;;;;;;;;;;1.20;92.50;;;;;;5019914;28;20002;-74
2021/04/26 04:11:57;;;;;;;;;;;1.40;92.30;;;;;;5026120;28;19960;-73
2021/04/26 04:14:22;;;;;;;;;;;1.40;91.90;;;;;;5024083;28;19921;-73
2021/04/26 04:16:48;;;;;;;;;;;1.30;92.00;;;;;;5026410;28;19922;-73
2021/04/26 04:19:14;;;;;;;;;;;1.10;92.40;;;;;;5022883;28;19921;-74
2021/04/26 04:21:39;;;;;;;;;;;1.00;92.60;;;;;;5021675;28;20032;-74
2021/04/26 04:24:05;;;;;;;;;;;0.90;93.00;;;;;;5022825;28;19957;-73
2021/04/26 04:26:30;;;;;;;;;;;0.80;93.00;;;;;;5024703;28;19939;-73
2021/04/26 04:28:56;;;;;;;;;;;0.70;93.30;;;;;;5018025;28;19927;-73
2021/04/26 04:31:22;;;;;;;;;;;0.70;93.70;;;;;;5023060;28;19913;-74
2021/04/26 04:33:47;;;;;;;;;;;0.70;93.80;;;;;;5006331;28;20250;-73
2021/04/26 04:36:15;;;;;;;;;;;0.60;93.80;;;;;;5004469;28;19921;-73
2021/04/26 04:38:40;;;;;;;;;;;0.70;93.90;;;;;;4991018;28;19925;-73
2021/04/26 04:41:06;;;;;;;;;;;0.70;93.90;;;;;;5026946;28;19921;-73
2021/04/26 04:43:32;;;;;;;;;;;0.70;94.10;;;;;;5030395;28;19920;-73
2021/04/26 04:45:57;;;;;;;;;;;0.70;94.10;;;;;;5005330;28;19926;-74
2021/04/26 04:48:23;;;;;;;;;;;0.70;94.00;;;;;;5024294;28;20003;-74
2021/04/26 04:50:49;;;;;;;;;;;0.70;94.20;;;;;;5022513;28;19967;-73
2021/04/26 04:53:14;;;;;;;;;;;0.70;94.00;;;;;;5003112;28;19923;-73
2021/04/26 04:55:40;;;;;;;;;;;0.80;94.20;;;;;;5020729;28;20092;-73
2021/04/26 04:58:05;;;;;;;;;;;0.80;94.10;;;;;;5021489;28;19920;-73
2021/04/26 05:00:31;;;;;;;;;;;0.90;94.10;;;;;;5024117;28;19956;-74
2021/04/26 05:02:56;;;;;;;;;;;0.90;94.00;;;;;;5025319;28;19924;-73
2021/04/26 05:05:22;;;;;;;;;;;0.90;93.80;;;;;;5019172;28;19965;-72
2021/04/26 05:07:48;;;;;;;;;;;1.00;93.70;;;;;;5021587;28;19951;-72
2021/04/26 05:10:14;;;;;;;;;;;1.10;93.50;;;;;;5023288;28;19955;-74
2021/04/26 05:12:39;;;;;;;;;;;1.20;93.50;;;;;;5022756;28;19921;-73
2021/04/26 05:15:05;;;;;;;;;;;1.30;93.30;;;;;;5020360;28;19944;-72
2021/04/26 05:17:31;;;;;;;;;;;1.30;93.50;;;;;;5035152;28;20234;-73
2021/04/26 05:19:57;;;;;;;;;;;1.30;93.40;;;;;;5013719;28;19917;-73
2021/04/26 05:22:22;;;;;;;;;;;1.40;93.00;;;;;;5014942;28;19917;-73
2021/04/26 05:24:48;;;;;;;;;;;1.40;93.10;;;;;;5020705;28;19959;-72
2021/04/26 05:27:14;;;;;;;;;;;1.50;93.20;;;;;;5034635;28;19913;-73
2021/04/26 05:29:39;;;;;;;;;;;1.50;93.00;;;;;;5035239;28;19909;-73
2021/04/26 05:32:05;;;;;;;;;;;1.60;93.10;;;;;;5035285;28;19913;-73
2021/04/26 05:34:30;;;;;;;;;;;1.70;92.60;;;;;;5028998;28;20315;-73
2021/04/26 05:36:56;;;;;;;;;;;1.90;92.10;;;;;;5027620;28;20004;-72
2021/04/26 05:39:22;;;;;;;;;;;2.00;91.70;;;;;;5035693;28;20320;-74
2021/04/26 05:41:47;;;;;;;;;;;2.20;91.30;;;;;;5035243;28;20376;-73
2021/04/26 05:44:13;;;;;;;;;;;2.30;91.30;;;;;;5034577;28;19916;-73
2021/04/26 05:46:38;;;;;;;;;;;2.40;90.90;;;;;;5035500;28;19917;-73
2021/04/26 05:49:04;;;;;;;;;;;2.60;90.00;;;;;;5035614;28;19909;-73
2021/04/26 05:51:29;;;;;;;;;;;2.70;89.00;;;;;;5034150;28;19910;-73
2021/04/26 05:53:56;;;;;;;;;;;2.90;89.00;;;;;;5032700;28;19932;-72
2021/04/26 05:56:21;;;;;;;;;;;2.90;88.90;;;;;;5015869;28;19913;-73
2021/04/26 05:58:48;;;;;;;;;;;2.90;88.70;;;;;;5015112;28;19910;-73
2021/04/26 06:01:13;;;;;;;;;;;3.10;88.00;;;;;;5015885;28;19917;-73
2021/04/26 06:03:39;;;;;;;;;;;3.30;87.60;;;;;;5015241;28;19996;-73
2021/04/26 06:06:04;;;;;;;;;;;3.40;87.10;;;;;;5009250;28;20087;-72
2021/04/26 06:08:30;;;;;;;;;;;3.50;86.30;;;;;;5012379;28;19967;-73
2021/04/26 06:10:55;;;;;;;;;;;3.70;85.80;;;;;;5014859;28;19914;-74
2021/04/26 06:13:21;;;;;;;;;;;3.90;85.10;;;;;;5015811;28;20005;-72
2021/04/26 06:15:47;;;;;;;;;;;3.90;84.10;;;;;;5027023;28;20047;-73
2021/04/26 06:18:14;;;;;;;;;;;4.00;83.60;;;;;;5017524;28;19914;-73
2021/04/26 06:20:40;;;;;;;;;;;4.00;83.40;;;;;;5018852;28;19909;-73
2021/04/26 06:23:06;;;;;;;;;;;4.10;83.80;;;;;;5000704;28;20010;-74
2021/04/26 06:25:32;;;;;;;;;;;4.30;83.90;;;;;;5019272;28;20306;-72
2021/04/26 06:27:58;;;;;;;;;;;4.40;83.30;;;;;;5018439;28;19916;-71
2021/04/26 06:30:24;;;;;;;;;;;4.50;83.20;;;;;;5018148;28;20230;-72
2021/04/26 06:32:49;;;;;;;;;;;4.60;82.70;;;;;;5017389;28;19915;-71
2021/04/26 06:35:15;;;;;;;;;;;4.70;82.50;;;;;;5018618;28;19968;-72
2021/04/26 06:37:40;;;;;;;;;;;4.80;82.50;;;;;;5016782;28;19913;-73
2021/04/26 06:40:06;;;;;;;;;;;4.90;83.00;;;;;;5013643;28;20013;-73
2021/04/26 06:42:31;;;;;;;;;;;5.10;83.30;;;;;;4982156;28;20268;-73
2021/04/26 06:44:57;;;;;;;;;;;5.30;82.20;;;;;;5010147;28;20004;-73
2021/04/26 06:47:22;;;;;;;;;;;5.30;82.10;;;;;;5001617;28;19923;-73
2021/04/26 06:49:48;;;;;;;;;;;5.40;82.00;;;;;;5015425;28;19910;-73
2021/04/26 06:52:13;;;;;;;;;;;5.50;81.40;;;;;;5015842;28;20218;-73
2021/04/26 06:54:39;;;;;;;;;;;5.70;81.60;;;;;;5029831;28;19928;-72
2021/04/26 06:57:05;;;;;;;;;;;5.80;80.90;;;;;;5035685;28;19940;-73
2021/04/26 06:59:30;;;;;;;;;;;6.00;80.10;;;;;;5038271;28;19913;-73
2021/04/26 07:01:56;;;;;;;;;;;6.20;79.00;;;;;;5038310;28;19910;-73
2021/04/26 07:04:21;;;;;;;;;;;6.30;79.30;;;;;;5031500;28;19955;-72
2021/04/26 07:06:47;;;;;;;;;;;6.40;79.50;;;;;;5036438;28;20055;-72
2021/04/26 07:09:12;;;;;;;;;;;6.50;79.40;;;;;;5038712;28;20227;-73
2021/04/26 07:11:39;;;;;;;;;;;6.50;79.80;;;;;;5042770;28;19920;-72
2021/04/26 07:14:05;;;;;;;;;;;6.60;79.50;;;;;;5057945;28;19992;-73
2021/04/26 07:16:31;;;;;;;;;;;6.50;79.70;;;;;;5040126;28;19909;-73
2021/04/26 07:18:56;;;;;;;;;;;6.60;79.80;;;;;;5018372;28;19914;-74
2021/04/26 07:21:22;;;;;;;;;;;6.80;79.90;;;;;;5023182;28;19909;-73
2021/04/26 07:23:50;;;;;;;;;;;7.00;78.60;;;;;;5038133;28;19988;-72
2021/04/26 07:26:16;;;;;;;;;;;7.10;79.50;;;;;;5032362;28;19917;-73
2021/04/26 07:28:41;;;;;;;;;;;7.20;78.60;;;;;;5017891;28;19920;-72
2021/04/26 07:31:07;;;;;;;;;;;7.40;77.30;;;;;;5003484;28;19955;-73
2021/04/26 07:33:33;;;;;;;;;;;7.60;77.10;;;;;;5037709;28;20314;-73
2021/04/26 07:35:58;;;;;;;;;;;7.50;76.90;;;;;;5037060;28;19920;-73
2021/04/26 07:38:24;;;;;;;;;;;7.70;76.40;;;;;;5019105;28;19917;-73
2021/04/26 07:40:50;;;;;;;;;;;8.00;75.80;;;;;;5037000;28;19988;-73
2021/04/26 07:43:15;;;;;;;;;;;8.00;74.90;;;;;;5037335;28;20007;-71
2021/04/26 07:45:41;;;;;;;;;;;8.10;74.60;;;;;;5037256;28;19913;-73
2021/04/26 07:48:06;;;;;;;;;;;8.70;73.90;;;;;;5037119;28;19913;-73
2021/04/26 07:50:32;;;;;;;;;;;9.90;71.30;;;;;;5036518;28;19913;-72
2021/04/26 07:52:58;;;;;;;;;;;11.20;68.30;;;;;;5018255;28;19913;-73
2021/04/26 07:55:23;;;;;;;;;;;12.00;65.50;;;;;;5037363;28;19929;-72
2021/04/26 07:57:49;;;;;;;;;;;12.10;64.60;;;;;;5035780;28;19924;-73
2021/04/26 08:00:17;;;;;;;;;;;12.60;64.20;;;;;;5036742;28;19913;-73
2021/04/26 08:02:43;;;;;;;;;;;13.20;63.20;;;;;;5019535;28;20304;-73
2021/04/26 08:05:09;;;;;;;;;;;13.40;62.60;;;;;;5036740;28;19964;-73
2021/04/26 08:07:34;;;;;;;;;;;13.80;61.90;;;;;;5035540;28;19913;-73
2021/04/26 08:10:00;;;;;;;;;;;13.80;61.10;;;;;;5036549;28;20635;-73
2021/04/26 08:12:25;;;;;;;;;;;13.80;61.10;;;;;;5036847;28;20376;-73
2021/04/26 08:14:51;;;;;;;;;;;14.00;61.00;;;;;;5014863;28;20372;-74
2021/04/26 08:17:16;;;;;;;;;;;14.20;60.60;;;;;;5036976;28;19909;-73
2021/04/26 08:19:45;;;;;;;;;;;14.70;59.70;;;;;;5036454;28;19952;-73
2021/04/26 08:22:11;;;;;;;;;;;14.80;59.30;;;;;;5035621;28;20273;-73
2021/04/26 08:24:37;;;;;;;;;;;15.20;58.50;;;;;;5019109;28;19929;-73
2021/04/26 08:27:02;;;;;;;;;;;15.30;57.80;;;;;;5036491;28;19940;-74
2021/04/26 08:29:28;;;;;;;;;;;15.20;57.90;;;;;;5036445;28;19909;-74
2021/04/26 08:31:53;;;;;;;;;;;15.40;57.10;;;;;;5036015;28;19913;-74
2021/04/26 08:34:19;;;;;;;;;;;15.70;57.80;;;;;;5036496;28;20283;-74
2021/04/26 08:36:44;;;;;;;;;;;16.10;56.80;;;;;;5034230;28;20011;-73
2021/04/26 08:39:10;;;;;;;;;;;16.20;55.70;;;;;;5036273;28;20003;-73
2021/04/26 08:41:38;;;;;;;;;;;16.20;56.70;;;;;;5035380;28;19920;-74
2021/04/26 08:44:04;;;;;;;;;;;16.00;56.50;;;;;;5036351;28;19919;-74
2021/04/26 08:46:33;;;;;;;;;;;16.40;57.40;;;;;;5056225;28;20225;-74
2021/04/26 08:48:58;;;;;;;;;;;17.20;53.40;;;;;;5040608;28;19995;-74
2021/04/26 08:51:24;;;;;;;;;;;17.80;53.00;;;;;;5017633;28;20011;-73
2021/04/26 08:53:49;;;;;;;;;;;17.20;53.40;;;;;;5005528;28;19929;-74
2021/04/26 08:56:15;;;;;;;;;;;17.90;52.90;;;;;;4999203;28;20040;-74
2021/04/26 08:58:41;;;;;;;;;;;18.70;52.00;;;;;;4998794;28;19920;-74
2021/04/26 09:01:06;;;;;;;;;;;18.90;50.20;;;;;;4999127;28;19913;-74
2021/04/26 09:03:33;;;;;;;;;;;18.70;51.80;;;;;;5016005;28;20065;-74
2021/04/26 09:05:59;;;;;;;;;;;18.50;50.90;;;;;;5015776;28;20295;-74
2021/04/26 09:08:27;;;;;;;;;;;18.60;50.80;;;;;;5014466;28;19914;-74
2021/04/26 09:10:53;;;;;;;;;;;18.30;49.80;;;;;;5014132;28;19922;-74
2021/04/26 09:13:31;;;;;;;;;;;18.10;50.20;;;;;;5016211;28;19967;-75
2021/04/26 09:16:23;;;;;;;;;;;17.70;51.20;;;;;;5015360;28;19964;-74
2021/04/26 09:18:49;;;;;;;;;;;18.40;51.00;;;;;;5016176;28;19913;-73
2021/04/26 09:21:25;;;;;;;;;;;18.90;49.40;;;;;;5007839;28;19998;-72
2021/04/26 09:24:08;;;;;;;;;;;19.40;50.50;;;;;;4979253;28;20222;-71
2021/04/26 09:26:34;;;;;;;;;;;18.80;50.30;;;;;;5009003;28;19924;-72
2021/04/26 09:29:18;;;;;;;;;;;18.10;52.00;;;;;;5015754;28;19997;-72
2021/04/26 09:31:57;;;;;;;;;;;17.80;51.50;;;;;;4992925;28;19928;-73
2021/04/26 09:34:31;;;;;;;;;;;17.50;52.60;;;;;;5015904;28;20219;-73
2021/04/26 09:37:08;;;;;;;;;;;17.50;53.10;;;;;;5013737;28;19910;-74
2021/04/26 09:39:35;;;;;;;;;;;17.60;53.60;;;;;;5015792;28;20000;-74
2021/04/26 09:42:01;;;;;;;;;;;18.00;53.00;;;;;;5015764;28;19910;-74
2021/04/26 09:44:26;;;;;;;;;;;17.90;53.90;;;;;;5016041;28;19920;-74
2021/04/26 09:46:53;;;;;;;;;;;17.80;53.30;;;;;;5005674;28;19913;-74
2021/04/26 09:49:20;;;;;;;;;;;17.90;53.10;;;;;;5035621;28;19970;-73
2021/04/26 09:51:48;;;;;;;;;;;18.20;53.00;;;;;;5005380;28;19945;-73
2021/04/26 09:54:14;;;;;;;;;;;18.60;51.50;;;;;;5028455;28;19925;-73
2021/04/26 09:56:41;;;;;;;;;;;18.60;53.00;;;;;;5037184;28;19920;-74
2021/04/26 09:59:08;;;;;;;;;;;19.40;51.30;;;;;;5035808;28;19917;-73
2021/04/26 10:01:34;;;;;;;;;;;18.80;50.20;;;;;;5015538;28;20264;-73
2021/04/26 10:04:01;;;;;;;;;;;18.20;52.40;;;;;;5038038;28;20409;-72
2021/04/26 10:06:27;;;;;;;;;;;17.70;52.00;;;;;;5032572;28;20222;-73
2021/04/26 10:08:54;;;;;;;;;;;18.00;52.30;;;;;;5034926;28;20298;-74
2021/04/26 10:11:21;;;;;;;;;;;18.40;52.30;;;;;;5039142;28;19920;-74
2021/04/26 10:13:47;;;;;;;;;;;19.10;52.00;;;;;;5032561;28;19913;-73
2021/04/26 10:16:36;;;;;;;;;;;19.30;50.70;;;;;;5026684;28;20222;-73
2021/04/26 10:19:03;;;;;;;;;;;18.80;51.80;;;;;;4990753;28;19924;-73
2021/04/26 10:21:30;;;;;;;;;;;18.40;52.10;;;;;;5046671;28;20315;-72
2021/04/26 10:23:56;;;;;;;;;;;18.30;52.30;;;;;;5037575;28;19917;-73
2021/04/26 10:26:48;;;;;;;;;;;17.80;52.60;;;;;;5027222;28;19925;-73
2021/04/26 10:29:27;;;;;;;;;;;17.50;53.40;;;;;;4989145;28;19914;-73
2021/04/26 10:31:59;;;;;;;;;;;18.10;51.70;;;;;;5029662;28;20383;-73
2021/04/26 10:34:45;;;;;;;;;;;18.70;51.70;;;;;;5023989;28;20021;-73
2021/04/26 10:37:16;;;;;;;;;;;18.90;51.70;;;;;;5004615;28;20000;-73
2021/04/26 10:40:00;;;;;;;;;;;18.90;51.90;;;;;;5030740;28;19921;-73
2021/04/26 10:42:36;;;;;;;;;;;18.80;50.70;;;;;;5028806;28;20312;-74
2021/04/26 10:45:03;;;;;;;;;;;18.50;50.70;;;;;;5029822;28;19913;-73
2021/04/26 10:47:31;;;;;;;;;;;18.50;50.70;;;;;;5027052;28;19921;-73
2021/04/26 10:50:00;;;;;;;;;;;19.00;51.20;;;;;;5024840;28;19913;-73
2021/04/26 10:52:28;;;;;;;;;;;19.00;51.10;;;;;;5030540;28;19913;-73
2021/04/26 10:55:02;;;;;;;;;;;19.10;49.60;;;;;;5038091;28;19921;-72
2021/04/26 10:57:42;;;;;;;;;;;18.90;51.10;;;;;;5035100;28;20199;-73
2021/04/26 11:00:20;;;;;;;;;;;18.90;50.90;;;;;;5029452;28;19913;-73
2021/04/26 11:02:45;;;;;;;;;;;19.00;49.40;;;;;;5029331;28;19913;-73
2021/04/26 11:05:14;;;;;;;;;;;18.40;51.00;;;;;;5029308;28;20330;-73
2021/04/26 11:07:41;;;;;;;;;;;18.10;52.40;;;;;;5026081;28;19917;-74
2021/04/26 11:10:25;;;;;;;;;;;18.40;51.60;;;;;;5029765;28;19961;-73
2021/04/26 11:12:53;;;;;;;;;;;18.10;50.60;;;;;;5029218;28;19966;-73
2021/04/26 11:15:19;;;;;;;;;;;17.90;51.80;;;;;;5029599;28;19939;-73
2021/04/26 11:17:45;;;;;;;;;;;18.40;49.60;;;;;;5029498;28;19921;-72
2021/04/26 11:20:14;;;;;;;;;;;18.60;50.40;;;;;;5030878;28;19917;-72
2021/04/26 11:22:40;;;;;;;;;;;18.60;50.70;;;;;;5029585;28;19963;-73
2021/04/26 11:25:09;;;;;;;;;;;18.60;49.90;;;;;;5030328;28;19963;-73
2021/04/26 11:27:37;;;;;;;;;;;18.50;49.90;;;;;;5008164;28;19921;-73
2021/04/26 11:30:02;;;;;;;;;;;18.40;49.50;;;;;;5029991;28;19924;-72
2021/04/26 11:32:28;;;;;;;;;;;18.10;50.90;;;;;;5036904;28;20325;-74
2021/04/26 11:34:56;;;;;;;;;;;17.90;51.10;;;;;;5032321;28;20229;-73
2021/04/26 11:37:22;;;;;;;;;;;18.40;50.00;;;;;;5029739;28;19910;-74
2021/04/26 11:39:48;;;;;;;;;;;18.40;49.40;;;;;;5037154;28;19956;-73
2021/04/26 11:42:21;;;;;;;;;;;18.40;50.10;;;;;;5037025;28;20006;-74
2021/04/26 11:44:46;;;;;;;;;;;18.10;50.60;;;;;;5036269;28;19917;-73
2021/04/26 11:47:13;;;;;;;;;;;18.10;50.20;;;;;;5037004;28;19921;-74
2021/04/26 11:49:42;;;;;;;;;;;18.10;50.00;;;;;;5017462;28;19913;-73
2021/04/26 11:52:12;;;;;;;;;;;17.90;50.40;;;;;;5034769;28;19944;-74
2021/04/26 11:54:38;;;;;;;;;;;18.00;49.90;;;;;;5031469;28;19921;-74
2021/04/26 11:57:08;;;;;;;;;;;18.50;49.40;;;;;;5033818;28;19924;-73
2021/04/26 11:59:34;;;;;;;;;;;18.40;48.80;;;;;;5010410;28;19920;-73
2021/04/26 12:02:00;;;;;;;;;;;18.20;49.30;;;;;;5036146;28;19940;-73
2021/04/26 12:04:33;;;;;;;;;;;18.00;49.40;;;;;;5034528;28;20007;-73
2021/04/26 12:06:59;;;;;;;;;;;17.70;49.90;;;;;;5005632;28;19917;-73
2021/04/26 12:09:24;;;;;;;;;;;17.60;49.70;;;;;;5031910;28;19996;-73
2021/04/26 12:11:57;;;;;;;;;;;17.50;50.30;;;;;;5028471;28;20413;-73
2021/04/26 12:14:23;;;;;;;;;;;17.40;50.70;;;;;;5028141;28;20010;-73
2021/04/26 12:16:48;;;;;;;;;;;17.50;50.20;;;;;;5029949;28;19971;-73
2021/04/26 12:19:14;;;;;;;;;;;17.90;49.30;;;;;;5027665;28;19925;-73
2021/04/26 12:21:40;;;;;;;;;;;17.80;49.50;;;;;;5029735;28;19960;-73
2021/04/26 12:24:06;;;;;;;;;;;17.70;48.90;;;;;;5030466;28;19963;-73
2021/04/26 12:26:32;;;;;;;;;;;17.40;49.70;;;;;;5030820;28;19917;-73
2021/04/26 12:28:57;;;;;;;;;;;17.20;49.80;;;;;;5007378;28;20339;-73
2021/04/26 12:31:24;;;;;;;;;;;17.70;50.70;;;;;;5026929;28;19921;-73
2021/04/26 12:33:49;;;;;;;;;;;18.00;49.10;;;;;;5032910;28;20000;-73
2021/04/26 12:36:15;;;;;;;;;;;17.90;47.60;;;;;;5028386;28;20059;-73
2021/04/26 12:38:47;;;;;;;;;;;17.60;50.50;;;;;;5023091;28;20311;-73
2021/04/26 12:41:13;;;;;;;;;;;17.80;48.60;;;;;;5023781;28;19921;-75
2021/04/26 12:43:39;;;;;;;;;;;18.20;48.80;;;;;;5020523;28;19919;-74
2021/04/26 12:46:14;;;;;;;;;;;18.40;48.80;;;;;;5042969;28;19925;-73
2021/04/26 12:48:50;;;;;;;;;;;18.00;49.00;;;;;;5029234;28;19913;-74
2021/04/26 12:51:29;;;;;;;;;;;18.20;48.30;;;;;;5020023;28;19999;-74
2021/04/26 12:54:06;;;;;;;;;;;18.80;47.20;;;;;;5022533;28;20004;-75
2021/04/26 12:56:31;;;;;;;;;;;18.70;47.50;;;;;;5023594;28;19921;-75
2021/04/26 12:58:57;;;;;;;;;;;18.70;48.50;;;;;;5028112;28;19928;-75
2021/04/26 13:01:25;;;;;;;;;;;18.40;48.60;;;;;;5026492;28;20314;-74
2021/04/26 13:03:53;;;;;;;;;;;18.90;47.70;;;;;;5026081;28;20059;-75
2021/04/26 13:06:20;;;;;;;;;;;18.90;48.60;;;;;;5016275;28;20002;-74
2021/04/26 13:08:50;;;;;;;;;;;19.00;46.70;;;;;;5029558;28;19921;-74
2021/04/26 13:11:31;;;;;;;;;;;18.60;47.20;;;;;;5023384;28;19921;-75
2021/04/26 13:14:01;;;;;;;;;;;18.80;45.20;;;;;;5026769;28;19927;-75
2021/04/26 13:16:30;;;;;;;;;;;19.10;47.30;;;;;;5007168;28;19913;-74
2021/04/26 13:19:00;;;;;;;;;;;18.70;43.80;;;;;;5017964;28;19921;-75
2021/04/26 13:21:53;;;;;;;;;;;18.50;43.30;;;;;;5025081;28;20007;-74
2021/04/26 13:24:21;;;;;;;;;;;18.90;43.20;;;;;;5022038;28;19913;-75
2021/04/26 13:27:00;;;;;;;;;;;19.40;45.20;;;;;;5015756;28;19948;-75
2021/04/26 13:29:26;;;;;;;;;;;19.70;46.10;;;;;;5033768;28;19963;-75
2021/04/26 13:31:54;;;;;;;;;;;19.40;45.50;;;;;;5034063;28;19932;-76
2021/04/26 13:34:23;;;;;;;;;;;19.70;43.20;;;;;;5033676;28;19916;-75
2021/04/26 13:36:48;;;;;;;;;;;20.30;44.10;;;;;;5032561;28;19980;-75
2021/04/26 13:39:15;;;;;;;;;;;21.00;39.70;;;;;;5033823;28;19913;-76
2021/04/26 13:41:42;;;;;;;;;;;20.50;44.20;;;;;;5026449;28;19913;-75
2021/04/26 13:44:08;;;;;;;;;;;19.70;46.90;;;;;;5029455;28;20570;-75
2021/04/26 13:46:33;;;;;;;;;;;19.90;45.60;;;;;;5021014;28;19926;-75
2021/04/26 13:48:59;;;;;;;;;;;20.00;45.20;;;;;;5023485;28;19913;-75
2021/04/26 13:51:25;;;;;;;;;;;20.00;46.60;;;;;;5027540;28;19950;-74
2021/04/26 13:53:51;;;;;;;;;;;19.60;46.90;;;;;;5026543;28;19935;-75
2021/04/26 13:56:17;;;;;;;;;;;19.50;46.90;;;;;;5004943;28;19913;-75
2021/04/26 13:58:42;;;;;;;;;;;19.50;46.70;;;;;;5027777;28;20478;-74
2021/04/26 14:01:08;;;;;;;;;;;19.30;45.00;;;;;;5004522;28;19917;-75
2021/04/26 14:03:33;;;;;;;;;;;19.10;46.30;;;;;;5025643;28;20230;-75
2021/04/26 14:05:59;;;;;;;;;;;19.20;47.30;;;;;;5020419;28;20223;-74
2021/04/26 14:08:25;;;;;;;;;;;19.90;43.70;;;;;;5023528;28;19917;-75
2021/04/26 14:10:51;;;;;;;;;;;20.40;42.40;;;;;;5026376;28;19983;-76
2021/04/26 14:13:17;;;;;;;;;;;20.50;44.80;;;;;;5023306;28;19992;-75
2021/04/26 14:15:42;;;;;;;;;;;20.60;43.50;;;;;;5010124;28;19917;-75
2021/04/26 14:18:08;;;;;;;;;;;20.40;44.40;;;;;;5023070;28;20258;-75
2021/04/26 14:20:34;;;;;;;;;;;20.70;40.20;;;;;;5027487;28;19920;-75
2021/04/26 14:23:00;;;;;;;;;;;21.10;38.60;;;;;;5030801;28;20309;-75
2021/04/26 14:25:26;;;;;;;;;;;20.60;41.20;;;;;;5000709;28;20011;-75